Time;durP1;ratioP1;P1;durP2;ratioP2;P2;SDS_P1;SDS_P2;PMS_P1;PMS_P2;Temp;Humidity;BMP_temperature;BMP_pressure;BME280_temperature;BME280_humidity;BME280_pressure;Samples;Min_cycle;Max_cycle;Signal;HPM_P1;HPM_P2
2021/04/05 00:00:33;;;;;;;12.73;6.33;;;;;;;2.95;63.42;96017.50;5074047;28;20486;-78
2021/04/05 00:02:59;;;;;;;14.23;6.27;;;;;;;2.97;63.51;96020.78;5068947;28;20028;-78
2021/04/05 00:05:28;;;;;;;13.27;5.90;;;;;;;2.98;63.01;96016.41;5047156;28;20025;-80
2021/04/05 00:07:54;;;;;;;18.07;6.63;;;;;;;3.00;63.73;96017.13;5076456;28;20033;-79
2021/04/05 00:10:21;;;;;;;13.87;5.97;;;;;;;2.95;63.66;96016.66;5062053;28;20950;-78
2021/04/05 00:12:49;;;;;;;18.63;9.83;;;;;;;2.86;63.67;96005.22;5054197;28;20504;-81
2021/04/05 00:15:15;;;;;;;24.70;9.90;;;;;;;2.76;64.02;96004.28;5062502;28;20447;-78
2021/04/05 00:17:41;;;;;;;18.60;9.03;;;;;;;2.83;63.35;96008.88;5052734;28;20466;-78
2021/04/05 00:20:13;;;;;;;19.27;7.70;;;;;;;2.91;63.16;96005.69;5058291;28;20067;-78
2021/04/05 00:22:41;;;;;;;19.97;7.13;;;;;;;2.83;63.85;95997.66;5051346;28;20564;-80
2021/04/05 00:25:08;;;;;;;14.17;6.93;;;;;;;2.83;63.48;95992.47;5059769;28;20573;-79
2021/04/05 00:27:35;;;;;;;15.50;6.07;;;;;;;2.86;62.82;95992.22;5070280;28;20804;-78
2021/04/05 00:30:01;;;;;;;17.30;6.17;;;;;;;2.78;63.42;95989.38;5066550;28;20447;-77
2021/04/05 00:32:26;;;;;;;11.63;5.40;;;;;;;2.81;63.28;95984.78;5077267;28;20463;-78
2021/04/05 00:34:52;;;;;;;9.30;4.87;;;;;;;2.82;63.02;95983.84;5060447;28;20031;-79
2021/04/05 00:37:18;;;;;;;10.93;5.27;;;;;;;2.88;62.78;95990.31;5062344;28;20462;-79
2021/04/05 00:39:44;;;;;;;14.27;5.10;;;;;;;2.77;63.41;95974.75;5061884;28;20488;-78
2021/04/05 00:42:11;;;;;;;12.37;5.63;;;;;;;2.80;63.65;95977.13;5052697;28;20438;-78
2021/04/05 00:44:37;;;;;;;12.07;5.27;;;;;;;2.84;63.34;95981.13;5055531;28;20683;-78
2021/04/05 00:47:03;;;;;;;13.80;5.63;;;;;;;2.83;63.35;95982.06;5069718;28;20466;-78
2021/04/05 00:49:28;;;;;;;14.23;5.50;;;;;;;2.80;63.81;95983.13;5048912;28;20052;-78
2021/04/05 00:51:54;;;;;;;12.20;6.23;;;;;;;2.80;63.87;95970.16;5049882;28;20522;-79
2021/04/05 00:54:21;;;;;;;12.33;5.60;;;;;;;2.87;63.29;95970.50;5077919;28;20465;-79
2021/04/05 00:56:47;;;;;;;16.20;6.00;;;;;;;2.95;63.46;95960.38;5080174;28;20035;-78
2021/04/05 00:59:13;;;;;;;10.90;5.80;;;;;;;2.94;62.89;95950.91;5080055;28;20454;-78
2021/04/05 01:01:39;;;;;;;10.73;5.50;;;;;;;2.96;62.90;95953.38;5057416;28;20029;-78
2021/04/05 01:04:05;;;;;;;11.93;5.43;;;;;;;2.96;62.65;95943.81;5052129;28;20123;-78
2021/04/05 01:06:33;;;;;;;8.60;4.60;;;;;;;3.03;62.51;95933.78;5057182;28;20125;-79
2021/04/05 01:08:59;;;;;;;13.90;6.30;;;;;;;3.03;62.66;95933.78;5064988;28;21483;-78
2021/04/05 01:11:30;;;;;;;16.53;5.70;;;;;;;3.03;62.15;95925.97;5061553;28;20463;-79
2021/04/05 01:13:57;;;;;;;9.73;4.70;;;;;;;3.03;62.16;95929.41;5058101;28;20028;-78
2021/04/05 01:16:28;;;;;;;8.43;4.20;;;;;;;3.07;62.26;95923.00;5071594;28;20477;-78
2021/04/05 01:18:57;;;;;;;14.33;6.83;;;;;;;3.11;61.66;95926.19;5053770;28;21010;-78
2021/04/05 01:21:24;;;;;;;8.73;4.63;;;;;;;3.02;62.10;95917.38;5073202;28;20467;-78
2021/04/05 01:23:50;;;;;;;12.50;5.13;;;;;;;3.09;61.92;95907.31;5069001;28;20470;-78
2021/04/05 01:26:16;;;;;;;15.27;6.17;;;;;;;3.02;62.27;95903.56;5077557;28;20469;-80
2021/04/05 01:28:42;;;;;;;10.57;4.60;;;;;;;3.01;61.75;95905.31;5057663;28;20458;-79
2021/04/05 01:31:09;;;;;;;11.63;4.63;;;;;;;3.06;61.96;95895.41;5051980;28;20032;-77
2021/04/05 01:33:39;;;;;;;11.13;5.53;;;;;;;3.05;62.29;95888.56;5062652;28;20479;-78
2021/04/05 01:36:11;;;;;;;11.83;5.63;;;;;;;2.93;62.55;95889.50;5053662;28;20465;-80
2021/04/05 01:38:38;;;;;;;10.33;5.00;;;;;;;2.78;63.26;95898.50;5068532;28;21034;-79
2021/04/05 01:41:10;;;;;;;10.77;4.97;;;;;;;2.71;63.70;95903.34;5065551;28;20682;-78
2021/04/05 01:43:39;;;;;;;10.70;5.67;;;;;;;2.71;63.94;95902.50;5084829;28;20505;-79
2021/04/05 01:46:08;;;;;;;12.20;5.13;;;;;;;2.74;63.18;95897.91;5079417;28;20610;-78
2021/04/05 01:48:34;;;;;;;9.60;4.57;;;;;;;2.70;63.60;95893.09;5057829;28;20463;-79
2021/04/05 01:51:30;;;;;;;9.47;4.93;;;;;;;2.70;63.54;95880.91;5058982;28;20465;-78
2021/04/05 01:53:56;;;;;;;11.47;5.27;;;;;;;2.71;63.47;95882.56;5043879;28;20044;-78
2021/04/05 01:56:23;;;;;;;9.70;5.30;;;;;;;2.68;63.65;95885.41;5058943;28;20490;-78
2021/04/05 01:58:50;;;;;;;9.07;5.03;;;;;;;2.68;64.00;95877.59;5081265;28;20473;-79
2021/04/05 02:01:29;;;;;;;9.13;5.47;;;;;;;2.65;63.81;95871.84;5071417;28;20538;-78
2021/04/05 02:03:57;;;;;;;11.93;4.80;;;;;;;2.63;63.73;95868.56;5066249;28;20470;-78
2021/04/05 02:06:29;;;;;;;12.23;5.07;;;;;;;2.42;64.83;95871.03;5079316;28;20540;-78
2021/04/05 02:08:55;;;;;;;14.63;5.90;;;;;;;2.33;64.63;95859.59;5079777;28;20462;-79
2021/04/05 02:11:23;;;;;;;13.63;5.53;;;;;;;2.37;64.79;95858.41;5088326;28;20434;-78
2021/04/05 02:13:52;;;;;;;13.00;6.30;;;;;;;2.49;64.62;95841.06;5036616;28;20518;-78
2021/04/05 02:16:20;;;;;;;10.23;5.20;;;;;;;2.30;64.84;95834.69;5055652;28;20450;-78
2021/04/05 02:18:47;;;;;;;10.07;5.07;;;;;;;2.10;65.10;95841.41;5049127;28;20558;-78
2021/04/05 02:21:14;;;;;;;9.87;5.20;;;;;;;2.04;66.01;95847.06;5057025;28;20469;-79
2021/04/05 02:23:41;;;;;;;12.27;5.17;;;;;;;1.95;66.01;95841.78;5073327;28;20569;-78
2021/04/05 02:26:08;;;;;;;12.10;5.83;;;;;;;2.02;65.50;95828.22;5073488;28;20467;-78
2021/04/05 02:28:41;;;;;;;10.57;5.30;;;;;;;2.10;65.17;95831.03;5043663;28;21249;-78
2021/04/05 02:31:11;;;;;;;;;;;;;;;1.91;66.30;95825.59;5071306;28;20512;-79
2021/04/05 02:33:42;;;;;;;12.23;5.30;;;;;;;1.92;65.94;95816.88;5063851;28;19920;-79
2021/04/05 02:36:10;;;;;;;14.67;4.87;;;;;;;1.93;66.14;95809.94;5078923;28;20474;-81
2021/04/05 02:38:42;;;;;;;11.07;5.23;;;;;;;2.00;65.95;95806.75;5055524;28;20474;-79
2021/04/05 02:41:09;;;;;;;11.47;5.33;;;;;;;2.04;66.12;95794.38;5051014;28;20483;-78
2021/04/05 02:43:36;;;;;;;13.73;5.93;;;;;;;2.06;66.00;95792.50;5070454;28;20455;-80
2021/04/05 02:46:04;;;;;;;12.17;5.30;;;;;;;1.97;66.09;95781.03;5049095;28;20492;-78
2021/04/05 02:48:33;;;;;;;10.33;5.10;;;;;;;2.00;66.12;95782.59;5081513;28;20458;-78
2021/04/05 02:51:05;;;;;;;11.13;5.30;;;;;;;2.01;66.10;95785.06;5069218;28;20462;-78
2021/04/05 02:53:32;;;;;;;11.20;5.57;;;;;;;2.02;65.97;95785.91;5075335;28;20470;-78
2021/04/05 02:56:06;;;;;;;12.77;6.40;;;;;;;1.99;66.07;95784.34;5053330;28;20032;-78
2021/04/05 02:58:32;;;;;;;;;;;;;;;1.94;65.86;95770.91;5053620;28;20475;-79
2021/04/05 03:00:58;;;;;;;10.53;5.13;;;;;;;2.07;65.66;95766.41;5079787;28;19970;-78
2021/04/05 03:03:25;;;;;;;8.50;5.10;;;;;;;2.18;65.23;95770.81;5076069;28;20469;-78
2021/04/05 03:05:51;;;;;;;14.20;5.27;;;;;;;2.29;64.47;95767.38;5075112;28;20457;-77
2021/04/05 03:08:17;;;;;;;9.70;4.73;;;;;;;2.29;64.64;95763.00;5061890;28;20546;-78
2021/04/05 03:10:43;;;;;;;8.67;4.47;;;;;;;2.35;64.50;95762.53;5051577;28;20453;-78
2021/04/05 03:13:11;;;;;;;10.50;5.00;;;;;;;2.42;63.92;95755.09;5085781;28;20811;-78
2021/04/05 03:15:37;;;;;;;11.60;4.90;;;;;;;2.51;63.64;95751.72;5079128;28;20430;-78
2021/04/05 03:18:06;;;;;;;11.53;5.37;;;;;;;2.54;64.10;95753.28;5067476;28;20543;-79
2021/04/05 03:20:34;;;;;;;12.90;5.80;;;;;;;2.50;64.13;95749.28;5083414;28;20515;-78
2021/04/05 03:23:04;;;;;;;10.00;5.00;;;;;;;2.47;63.82;95752.13;5074894;28;21125;-78
2021/04/05 03:25:30;;;;;;;10.70;4.93;;;;;;;2.38;64.52;95753.66;5056001;28;20570;-78
2021/04/05 03:27:57;;;;;;;14.00;5.10;;;;;;;2.38;64.63;95752.84;5047640;28;20459;-79
2021/04/05 03:30:25;;;;;;;9.97;5.70;;;;;;;2.35;64.66;95748.72;5079869;28;20477;-79
2021/04/05 03:33:06;;;;;;;11.77;4.93;;;;;;;2.41;64.38;95730.06;5070537;28;20470;-78
2021/04/05 03:35:36;;;;;;;10.17;5.07;;;;;;;2.40;64.32;95720.63;5059831;28;20519;-76
2021/04/05 03:38:03;;;;;;;14.43;5.30;;;;;;;2.38;64.55;95714.72;5057660;28;21029;-77
2021/04/05 03:40:29;;;;;;;9.70;4.60;;;;;;;2.29;64.55;95700.72;5074516;28;20450;-77
2021/04/05 03:43:04;;;;;;;9.20;4.50;;;;;;;2.26;64.61;95695.78;5056032;28;20479;-77
2021/04/05 03:45:57;;;;;;;8.00;4.63;;;;;;;2.19;65.05;95688.63;5068526;28;20426;-76
2021/04/05 03:48:37;;;;;;;11.53;5.20;;;;;;;2.24;64.67;95684.69;5056893;28;20461;-77
2021/04/05 03:51:10;;;;;;;14.37;5.20;;;;;;;2.15;65.63;95672.47;5056150;28;20796;-77
2021/04/05 03:53:55;;;;;;;10.90;3.37;;;;;;;2.06;65.84;95679.19;5059416;28;20482;-77
2021/04/05 03:56:31;;;;;;;12.70;4.83;;;;;;;1.99;66.66;95678.03;5057018;28;20454;-77
2021/04/05 03:59:04;;;;;;;11.07;5.10;;;;;;;1.89;67.25;95666.72;5069332;28;20466;-76
2021/04/05 04:01:31;;;;;;;8.93;4.88;;;;;;;1.95;66.81;95661.06;5065791;28;21226;-76
2021/04/05 04:04:07;;;;;;;9.03;4.73;;;;;;;1.91;66.91;95664.81;5059691;28;20054;-77
2021/04/05 04:06:42;;;;;;;11.20;5.03;;;;;;;2.01;66.49;95665.78;5075400;28;20478;-77
2021/04/05 04:09:08;;;;;;;9.73;4.80;;;;;;;2.10;65.83;95674.59;5056612;28;20471;-76
2021/04/05 04:11:36;;;;;;;8.97;4.27;;;;;;;2.08;66.28;95681.69;5064794;28;20939;-77
2021/04/05 04:14:06;;;;;;;8.77;4.70;;;;;;;2.05;66.49;95687.94;5045467;28;20060;-77
2021/04/05 04:16:33;;;;;;;12.43;4.37;;;;;;;2.16;65.92;95676.69;5055981;28;20470;-78
2021/04/05 04:19:02;;;;;;;11.63;4.80;;;;;;;2.24;65.96;95681.28;5057485;28;20573;-77
2021/04/05 04:21:29;;;;;;;9.50;4.10;;;;;;;2.22;66.41;95676.22;5044565;28;20470;-77
2021/04/05 04:24:00;;;;;;;13.30;4.90;;;;;;;2.16;66.52;95674.09;5047061;28;20654;-76
2021/04/05 04:26:31;;;;;;;12.57;4.83;;;;;;;2.26;66.64;95669.84;5069492;28;20468;-77
2021/04/05 04:28:57;;;;;;;10.50;4.87;;;;;;;2.33;66.17;95658.03;5061639;28;20509;-77
2021/04/05 04:31:23;;;;;;;9.90;4.03;;;;;;;2.33;66.54;95655.44;5085207;28;20398;-76
2021/04/05 04:33:49;;;;;;;8.60;4.23;;;;;;;2.43;66.69;95639.13;5072503;28;20063;-76
2021/04/05 04:36:25;;;;;;;10.20;4.53;;;;;;;2.39;67.08;95638.56;5044672;28;20835;-77
2021/04/05 04:38:54;;;;;;;9.63;5.20;;;;;;;2.44;66.89;95631.19;5054174;28;20450;-76
2021/04/05 04:41:25;;;;;;;8.57;4.13;;;;;;;2.38;66.97;95625.69;5047778;28;20471;-77
2021/04/05 04:43:57;;;;;;;13.20;5.33;;;;;;;2.43;66.83;95619.19;5063981;28;20562;-77
2021/04/05 04:46:23;;;;;;;13.27;5.03;;;;;;;2.35;66.70;95621.59;5061117;28;20460;-76
2021/04/05 04:49:05;;;;;;;8.57;4.17;;;;;;;2.29;66.77;95622.91;5044469;28;20888;-76
2021/04/05 04:51:31;;;;;;;9.97;4.57;;;;;;;2.26;67.39;95633.53;5045703;28;20455;-76
2021/04/05 04:54:00;;;;;;;11.23;4.73;;;;;;;2.19;67.32;95623.75;5047433;28;20538;-76
2021/04/05 04:56:27;;;;;;;8.40;4.27;;;;;;;2.22;67.51;95616.56;5044677;28;20703;-77
2021/04/05 04:59:07;;;;;;;11.17;4.80;;;;;;;2.20;67.22;95608.06;5065527;28;20970;-77
2021/04/05 05:01:44;;;;;;;11.07;4.90;;;;;;;2.28;66.74;95602.25;5057131;28;20842;-76
2021/04/05 05:04:19;;;;;;;13.73;5.27;;;;;;;2.34;66.62;95612.13;5044702;28;21260;-77
2021/04/05 05:06:47;;;;;;;9.10;4.87;;;;;;;2.38;66.50;95610.94;5048311;28;20819;-76
2021/04/05 05:09:15;;;;;;;11.03;4.63;;;;;;;2.35;66.87;95606.84;5067370;28;20506;-77
2021/04/05 05:11:42;;;;;;;10.57;5.50;;;;;;;2.35;66.70;95599.06;5054693;28;20436;-76
2021/04/05 05:14:08;;;;;;;11.33;5.13;;;;;;;2.33;66.69;95594.94;5064634;28;20457;-76
2021/04/05 05:16:35;;;;;;;13.97;5.23;;;;;;;2.48;66.15;95598.88;5056165;28;20490;-76
2021/04/05 05:19:02;;;;;;;10.80;4.90;;;;;;;2.49;65.75;95584.13;5063128;28;20114;-76
2021/04/05 05:21:32;;;;;;;17.03;9.53;;;;;;;2.46;66.04;95577.41;5065329;28;20475;-77
2021/04/05 05:24:02;;;;;;;15.70;8.10;;;;;;;2.42;66.71;95568.25;5046740;28;20474;-77
2021/04/05 05:26:31;;;;;;;10.77;6.20;;;;;;;2.53;65.96;95562.97;5047754;28;20837;-77
2021/04/05 05:29:00;;;;;;;12.70;6.90;;;;;;;2.53;65.69;95557.78;5073454;28;20443;-77
2021/04/05 05:31:27;;;;;;;16.43;7.00;;;;;;;2.50;66.49;95546.84;5045255;28;20621;-77
2021/04/05 05:33:52;;;;;;;10.80;5.93;;;;;;;2.59;66.46;95559.06;5064097;28;20522;-76
2021/04/05 05:36:18;;;;;;;10.73;4.90;;;;;;;2.67;66.33;95545.44;5064288;28;20612;-77
2021/04/05 05:38:44;;;;;;;11.83;4.97;;;;;;;2.79;66.25;95544.44;5046749;28;20074;-77
2021/04/05 05:41:23;;;;;;;9.17;4.37;;;;;;;2.90;65.81;95540.94;5058870;28;20413;-77
2021/04/05 05:44:08;;;;;;;11.03;4.83;;;;;;;3.02;65.18;95532.09;5048530;28;20029;-77
2021/04/05 05:46:44;;;;;;;9.67;4.60;;;;;;;3.10;64.55;95532.25;5066922;28;20478;-78
2021/04/05 05:49:50;;;;;;;13.00;6.23;;;;;;;3.24;63.42;95525.88;5047467;28;20525;-77
2021/04/05 05:52:51;;;;;;;10.77;4.83;;;;;;;3.26;63.28;95519.63;5048710;28;21030;-77
2021/04/05 05:55:56;;;;;;;10.87;4.40;;;;;;;3.39;63.53;95514.19;5034932;28;20473;-76
2021/04/05 05:58:33;;;;;;;12.60;4.50;;;;;;;3.43;63.61;95517.34;5072601;28;20490;-77
2021/04/05 06:01:05;;;;;;;11.40;4.97;;;;;;;3.51;63.07;95513.09;5067895;28;20498;-76
2021/04/05 06:03:48;;;;;;;12.77;5.50;;;;;;;3.62;62.65;95504.38;5067623;28;20478;-77
2021/04/05 06:06:39;;;;;;;14.45;5.57;;;;;;;3.73;62.35;95516.44;5049701;28;20515;-77
2021/04/05 06:09:17;;;;;;;11.77;5.33;;;;;;;3.81;62.53;95511.38;5042241;28;20068;-77
2021/04/05 06:11:57;;;;;;;9.93;4.27;;;;;;;3.99;61.36;95511.50;5054390;28;20476;-77
2021/04/05 06:14:47;;;;;;;9.70;4.47;;;;;;;4.02;61.25;95503.44;5052121;28;20453;-78
2021/04/05 06:17:25;;;;;;;10.90;5.00;;;;;;;4.08;61.24;95499.47;5052424;28;20474;-77
2021/04/05 06:19:53;;;;;;;11.63;4.80;;;;;;;4.05;61.45;95505.78;5070590;28;20458;-77
2021/04/05 06:22:26;;;;;;;11.27;4.30;;;;;;;4.16;60.82;95502.22;5059220;28;20970;-76
2021/04/05 06:25:00;;;;;;;;;;;;;;;4.12;61.03;95506.03;5064094;28;20521;-77
2021/04/05 06:27:26;;;;;;;;;;;;;;;4.23;60.60;95492.91;5074489;28;20375;-76
2021/04/05 06:30:17;;;;;;;12.00;4.43;;;;;;;4.20;60.90;95491.41;5074140;28;19916;-77
2021/04/05 06:32:54;;;;;;;8.47;4.27;;;;;;;4.34;61.15;95484.94;5067806;28;20041;-77
2021/04/05 06:35:20;;;;;;;11.00;4.97;;;;;;;4.47;59.88;95474.25;5051835;28;20490;-77
2021/04/05 06:37:50;;;;;;;7.97;3.73;;;;;;;4.44;59.86;95475.34;5049810;28;20751;-76
2021/04/05 06:40:18;;;;;;;11.93;4.07;;;;;;;4.55;59.59;95478.72;5035987;28;20124;-77
2021/04/05 06:42:59;;;;;;;10.50;4.27;;;;;;;4.64;59.24;95465.69;5067141;28;20995;-77
2021/04/05 06:45:52;;;;;;;9.73;4.57;;;;;;;4.87;58.10;95458.34;5050573;28;20967;-77
2021/04/05 06:48:51;;;;;;;10.13;4.93;;;;;;;5.41;56.93;95450.69;5030662;28;20548;-77
2021/04/05 06:51:50;;;;;;;9.67;4.60;;;;;;;5.87;55.79;95457.50;5048982;28;20462;-77
2021/04/05 06:54:41;;;;;;;13.87;4.07;;;;;;;6.11;54.34;95440.44;5055480;28;20469;-77
2021/04/05 06:57:14;;;;;;;10.97;4.20;;;;;;;6.09;54.06;95444.97;5046019;28;20479;-77
2021/04/05 06:59:59;;;;;;;15.98;4.53;;;;;;;5.94;55.40;95430.84;5060086;28;20442;-77
2021/04/05 07:02:49;;;;;;;7.60;3.37;;;;;;;6.00;55.22;95423.25;5038698;28;20033;-76
2021/04/05 07:05:59;;;;;;;10.03;4.00;;;;;;;6.09;54.82;95416.28;5034679;28;20560;-77
2021/04/05 07:08:34;;;;;;;10.03;3.87;;;;;;;6.06;54.77;95433.03;4982407;28;21160;-77
2021/04/05 07:11:15;;;;;;;12.40;4.17;;;;;;;6.12;53.96;95435.06;5059732;28;20580;-79
2021/04/05 07:14:07;;;;;;;7.83;3.67;;;;;;;6.01;54.87;95429.28;5051297;28;20487;-78
2021/04/05 07:17:03;;;;;;;9.27;4.13;;;;;;;6.13;55.05;95417.59;5046765;28;20851;-77
2021/04/05 07:19:57;;;;;;;9.63;4.13;;;;;;;6.01;54.30;95404.00;5049907;28;20431;-78
2021/04/05 07:22:32;;;;;;;10.13;4.45;;;;;;;6.17;54.89;95418.97;5046859;28;21031;-77
2021/04/05 07:25:03;;;;;;;12.77;4.20;;;;;;;6.20;54.59;95416.00;5056244;28;20033;-77
2021/04/05 07:27:40;;;;;;;12.53;4.53;;;;;;;6.33;54.86;95421.66;5062039;28;21002;-78
2021/04/05 07:30:23;;;;;;;10.37;4.00;;;;;;;6.33;53.93;95416.44;5071275;28;20814;-77
2021/04/05 07:33:25;;;;;;;13.53;6.77;;;;;;;6.73;54.20;95419.47;5030229;28;20486;-78
2021/04/05 07:36:17;;;;;;;10.93;3.90;;;;;;;6.87;53.36;95421.47;5042808;28;20473;-77
2021/04/05 07:38:46;;;;;;;9.23;3.83;;;;;;;6.84;53.12;95412.19;5048310;28;20471;-77
2021/04/05 07:41:37;;;;;;;11.80;4.60;;;;;;;6.76;53.19;95414.72;5051137;28;20393;-78
2021/04/05 07:44:03;;;;;;;8.23;3.90;;;;;;;6.71;53.78;95424.03;5046711;28;20037;-78
2021/04/05 07:46:42;;;;;;;10.67;4.40;;;;;;;6.81;52.70;95411.69;5041460;28;20061;-77
2021/04/05 07:49:33;;;;;;;8.60;4.67;;;;;;;6.84;53.37;95411.34;5049846;28;20035;-79
2021/04/05 07:52:20;;;;;;;13.90;5.93;;;;;;;6.90;53.01;95404.66;5056075;28;20051;-79
2021/04/05 07:54:47;;;;;;;9.60;4.33;;;;;;;7.02;52.75;95400.81;5053311;28;20036;-77
2021/04/05 07:57:39;;;;;;;12.13;5.43;;;;;;;7.10;51.85;95385.13;5057244;28;20050;-79
2021/04/05 08:00:17;;;;;;;9.97;4.00;;;;;;;7.82;50.38;95389.88;5056482;28;20033;-77
2021/04/05 08:02:57;;;;;;;9.03;4.13;;;;;;;8.30;49.59;95383.78;5060913;28;20094;-80
2021/04/05 08:05:38;;;;;;;10.97;4.47;;;;;;;8.59;48.49;95388.53;5038265;28;20452;-78
2021/04/05 08:08:27;;;;;;;9.00;3.17;;;;;;;8.70;48.26;95389.97;5049187;28;20044;-78
2021/04/05 08:11:20;;;;;;;9.97;4.10;;;;;;;8.76;48.45;95388.50;5033799;28;20032;-81
2021/04/05 08:14:14;;;;;;;9.00;4.72;;;;;;;8.50;48.65;95392.94;5050454;28;20039;-78
2021/04/05 08:17:01;;;;;;;8.32;3.40;;;;;;;8.65;49.24;95385.25;5061796;28;20029;-78
2021/04/05 08:19:55;;;;;;;8.97;4.07;;;;;;;8.95;47.94;95388.06;5069303;28;20089;-77
2021/04/05 08:22:36;;;;;;;18.67;8.50;;;;;;;8.80;48.43;95379.28;5066253;28;20095;-78
2021/04/05 08:25:25;;;;;;;8.60;4.27;;;;;;;8.89;48.18;95380.91;5059539;28;20075;-77
2021/04/05 08:28:07;;;;;;;11.63;5.77;;;;;;;9.07;47.91;95370.97;5059169;28;20032;-77
2021/04/05 08:30:33;;;;;;;15.13;8.73;;;;;;;9.19;47.70;95379.31;5052756;28;20493;-78
2021/04/05 08:33:17;;;;;;;11.87;3.87;;;;;;;9.12;47.57;95367.84;5064253;28;20097;-79
2021/04/05 08:35:51;;;;;;;9.63;4.13;;;;;;;9.10;46.89;95365.41;5042311;28;20124;-77
2021/04/05 08:38:25;;;;;;;11.47;3.77;;;;;;;9.31;46.99;95367.41;5039085;28;20572;-78
2021/04/05 08:41:28;;;;;;;8.52;3.45;;;;;;;9.62;46.30;95358.69;5055201;28;20103;-78
2021/04/05 08:44:12;;;;;;;10.53;4.27;;;;;;;9.63;46.15;95355.91;5049237;28;20052;-78
2021/04/05 08:46:39;;;;;;;;;;;;;;;10.06;45.29;95358.88;5041220;28;20037;-78
2021/04/05 08:49:19;;;;;;;8.80;4.57;;;;;;;10.34;44.79;95351.25;5053727;28;19916;-78
2021/04/05 08:51:53;;;;;;;8.50;3.80;;;;;;;10.50;43.83;95347.63;5046508;28;20048;-80
2021/04/05 08:54:23;;;;;;;8.50;4.03;;;;;;;10.21;44.37;95347.56;5051183;28;20149;-77
2021/04/05 08:57:02;;;;;;;10.43;4.03;;;;;;;10.09;44.48;95345.38;5074865;28;20028;-78
2021/04/05 08:59:45;;;;;;;14.00;4.40;;;;;;;10.44;44.36;95348.34;5044247;28;20044;-78
2021/04/05 09:02:26;;;;;;;12.20;4.53;;;;;;;10.08;44.10;95341.09;5045852;28;20120;-78
2021/04/05 09:04:56;;;;;;;11.73;3.87;;;;;;;9.69;45.19;95338.63;5061557;28;20112;-80
2021/04/05 09:07:34;;;;;;;9.10;4.17;;;;;;;9.66;45.65;95331.94;5058967;28;20517;-79
2021/04/05 09:10:06;;;;;;;11.20;4.43;;;;;;;9.72;45.90;95330.41;5036433;28;20056;-79
2021/04/05 09:12:36;;;;;;;11.67;3.83;;;;;;;9.93;45.66;95327.13;5054648;28;20032;-78
2021/04/05 09:15:21;;;;;;;12.30;4.23;;;;;;;10.20;45.04;95317.84;5065425;28;20038;-79
2021/04/05 09:18:05;;;;;;;10.87;5.17;;;;;;;9.60;44.89;95323.94;5078994;28;20020;-79
2021/04/05 09:20:52;;;;;;;9.57;3.90;;;;;;;9.72;45.16;95317.28;5066236;28;20032;-79
2021/04/05 09:23:52;;;;;;;8.37;3.80;;;;;;;9.59;45.28;95322.28;5082771;28;20033;-79
2021/04/05 09:26:59;;;;;;;8.97;4.03;;;;;;;9.84;45.12;95322.94;5071945;28;20028;-79
2021/04/05 09:29:40;;;;;;;12.13;3.83;;;;;;;10.11;47.01;95309.22;5057013;28;20060;-80
2021/04/05 09:32:43;;;;;;;16.73;6.33;;;;;;;10.12;44.64;95297.72;5063433;28;20032;-79
2021/04/05 09:35:27;;;;;;;12.77;4.77;;;;;;;10.21;44.88;95287.13;5062891;28;20177;-78
2021/04/05 09:37:55;;;;;;;;;;;;;;;10.57;44.19;95277.56;5067561;28;20127;-80
2021/04/05 09:40:34;;;;;;;11.93;5.03;;;;;;;10.74;44.07;95266.84;5068207;28;19944;-79
2021/04/05 09:43:29;;;;;;;14.13;5.67;;;;;;;10.26;43.91;95276.91;5062034;28;20036;-79
2021/04/05 09:46:13;;;;;;;15.07;7.27;;;;;;;10.36;44.29;95277.47;5074704;28;20082;-79
2021/04/05 09:48:42;;;;;;;;;;;;;;;10.54;44.23;95263.97;5071536;28;20451;-79
2021/04/05 09:51:33;;;;;;;13.00;5.97;;;;;;;10.81;43.11;95254.59;5063530;28;19912;-79
2021/04/05 09:54:12;;;;;;;16.47;7.47;;;;;;;11.11;43.40;95249.25;5060641;28;20024;-79
2021/04/05 09:56:46;;;;;;;13.30;6.80;;;;;;;11.43;43.34;95245.31;5057488;28;20409;-79
2021/04/05 09:59:18;;;;;;;;;;;;;;;11.61;42.38;95224.63;5072889;28;20044;-79
2021/04/05 10:01:50;;;;;;;8.00;4.17;;;;;;;11.37;41.84;95223.19;5079169;28;20315;-79
2021/04/05 10:04:22;;;;;;;10.97;3.90;;;;;;;11.23;42.99;95230.16;5079193;28;20043;-79
2021/04/05 10:06:50;;;;;;;10.57;4.57;;;;;;;11.49;42.38;95218.22;5062292;28;20040;-79
2021/04/05 10:09:25;;;;;;;8.37;3.73;;;;;;;11.47;42.19;95226.31;5064302;28;20062;-81
2021/04/05 10:11:52;;;;;;;8.60;3.90;;;;;;;11.93;42.05;95212.72;5060525;28;20029;-78
2021/04/05 10:14:22;;;;;;;8.10;3.83;;;;;;;11.63;42.32;95211.25;5046967;28;20120;-79
2021/04/05 10:16:53;;;;;;;13.87;5.40;;;;;;;12.14;42.00;95197.84;5055978;28;20074;-79
2021/04/05 10:19:31;;;;;;;13.47;5.13;;;;;;;12.14;41.25;95190.78;5057716;28;20059;-79
2021/04/05 10:22:02;;;;;;;12.70;6.77;;;;;;;12.41;41.53;95198.81;5063036;28;20036;-79
2021/04/05 10:24:31;;;;;;;12.33;4.73;;;;;;;12.05;41.57;95196.38;5063646;28;20120;-81
2021/04/05 10:26:58;;;;;;;11.60;4.83;;;;;;;11.95;42.65;95200.19;5071861;28;20016;-79
2021/04/05 10:29:29;;;;;;;11.20;4.30;;;;;;;12.26;41.71;95181.28;5072636;28;20037;-79
2021/04/05 10:32:00;;;;;;;17.13;7.03;;;;;;;12.10;41.09;95193.97;5082625;28;20031;-79
2021/04/05 10:34:27;;;;;;;12.23;4.83;;;;;;;12.03;40.73;95184.19;5078711;28;20038;-79
2021/04/05 10:37:06;;;;;;;12.53;4.27;;;;;;;12.48;40.87;95176.72;5059589;28;20020;-79
2021/04/05 10:39:33;;;;;;;14.70;3.87;;;;;;;12.83;40.11;95170.56;5055797;28;20048;-79
2021/04/05 10:42:02;;;;;;;15.00;6.43;;;;;;;12.61;40.68;95175.13;5078123;28;20032;-79
2021/04/05 10:44:31;;;;;;;11.90;4.40;;;;;;;12.47;40.24;95167.22;5049859;28;20043;-79
2021/04/05 10:47:05;;;;;;;13.30;5.20;;;;;;;12.57;39.95;95160.72;5043857;28;20036;-79
2021/04/05 10:49:32;;;;;;;12.95;4.00;;;;;;;12.47;40.12;95172.47;5072884;28;20044;-80
2021/04/05 10:52:23;;;;;;;9.47;3.70;;;;;;;12.65;38.61;95168.47;5052945;28;20028;-80
2021/04/05 10:54:50;;;;;;;14.30;4.27;;;;;;;13.06;38.65;95162.28;5050389;28;20040;-79
2021/04/05 10:57:27;;;;;;;13.47;3.33;;;;;;;12.74;37.04;95156.72;5059070;28;20115;-80
2021/04/05 10:59:57;;;;;;;7.30;2.33;;;;;;;12.42;35.81;95158.25;5066300;28;20043;-80
2021/04/05 11:02:29;;;;;;;10.70;4.57;;;;;;;12.59;35.28;95156.09;5083260;28;20021;-80
2021/04/05 11:04:59;;;;;;;10.17;4.40;;;;;;;12.54;35.44;95145.28;5067897;28;20061;-79
2021/04/05 11:07:29;;;;;;;9.90;2.70;;;;;;;12.68;35.37;95150.44;5059180;28;20087;-81
2021/04/05 11:09:58;;;;;;;6.77;3.23;;;;;;;12.37;35.44;95156.19;5064484;28;20024;-79
2021/04/05 11:12:32;;;;;;;11.90;3.57;;;;;;;12.26;35.06;95149.66;5079405;28;20035;-79
2021/04/05 11:15:02;;;;;;;8.93;2.73;;;;;;;12.39;35.86;95148.09;5062920;28;20091;-79
2021/04/05 11:17:33;;;;;;;9.90;2.73;;;;;;;12.47;35.22;95148.75;5062457;28;20075;-79
2021/04/05 11:20:01;;;;;;;9.43;2.97;;;;;;;11.92;35.68;95152.31;5053850;28;20266;-81
2021/04/05 11:22:29;;;;;;;9.93;3.40;;;;;;;12.05;36.04;95146.31;5051012;28;20688;-79
2021/04/05 11:25:01;;;;;;;8.10;3.13;;;;;;;11.74;36.23;95152.81;5073918;28;20280;-78
2021/04/05 11:27:29;;;;;;;7.53;3.27;;;;;;;11.52;36.39;95141.50;5066064;28;20035;-79
2021/04/05 11:29:59;;;;;;;9.03;2.73;;;;;;;11.72;36.27;95136.38;5084724;28;20020;-79
2021/04/05 11:32:28;;;;;;;8.30;2.67;;;;;;;11.73;37.26;95151.16;5056905;28;20106;-79
2021/04/05 11:34:57;;;;;;;10.57;3.27;;;;;;;11.42;37.62;95139.19;5061558;28;20435;-80
2021/04/05 11:37:32;;;;;;;8.17;2.50;;;;;;;11.50;37.61;95131.16;5065151;28;20033;-80
2021/04/05 11:40:09;;;;;;;7.53;3.30;;;;;;;11.25;38.04;95137.84;5070099;28;20190;-79
2021/04/05 11:42:42;;;;;;;11.77;3.60;;;;;;;11.27;37.52;95118.25;5058095;28;20033;-80
2021/04/05 11:45:09;;;;;;;11.50;3.30;;;;;;;11.04;37.76;95123.72;5062329;28;20123;-80
2021/04/05 11:47:39;;;;;;;6.57;2.87;;;;;;;11.23;38.71;95122.25;5064124;28;20033;-79
2021/04/05 11:50:17;;;;;;;9.27;3.77;;;;;;;11.05;39.45;95130.59;5058997;28;20028;-79
2021/04/05 11:52:55;;;;;;;7.37;3.57;;;;;;;10.49;39.65;95119.13;5061285;28;20040;-81
2021/04/05 11:55:29;;;;;;;13.20;5.13;;;;;;;10.66;39.52;95125.75;5066575;28;20090;-79
2021/04/05 11:58:20;;;;;;;11.43;5.33;;;;;;;10.59;40.32;95119.63;5055960;28;20028;-79
2021/04/05 12:00:51;;;;;;;12.43;4.47;;;;;;;10.83;40.77;95128.97;5074570;28;20032;-79
2021/04/05 12:03:35;;;;;;;12.03;5.20;;;;;;;10.69;41.66;95137.72;5077294;28;20120;-79
2021/04/05 12:06:13;;;;;;;14.20;5.85;;;;;;;10.34;43.26;95129.69;5054406;28;20041;-79
2021/04/05 12:08:58;;;;;;;15.07;5.50;;;;;;;10.31;44.17;95127.41;5061605;28;20039;-79